This is the latest recevied weather packets stored in our database for station/object KE0TNI-13. If no packets are shown the sender has not sent any weather packets the latest 10 day(s).
| Time | Temp. | Humidity | Pressure | Rain* | Wind** | Luminosity | Snow |
|---|---|---|---|---|---|---|---|
| 1777663033 | 5° C | 69% | 1023 hPa | 0 mm | - | 180 W/m² | - |
| 1777661211 | 6.11° C | 56% | 1023.2 hPa | 0 mm | - | 113 W/m² | - |
| 1777660607 | 6.67° C | 57% | 1023.1 hPa | 0 mm | - | 251 W/m² | - |
| 1777660304 | 7.22° C | 53% | 1023.1 hPa | 0 mm | - | 255 W/m² | - |
| 1777660001 | 7.22° C | 48% | 1023.3 hPa | 0 mm | - | 227 W/m² | - |
| 1777659697 | 6.11° C | 57% | 1023.7 hPa | 0 mm | - | 584 W/m² | - |
| 1777659395 | 3.33° C | 69% | 1023.2 hPa | 0 mm | - | 1109 W/m² | - |
| 1777658790 | 3.89° C | 71% | 1023.5 hPa | 0 mm | - | 191 W/m² | - |
| 1777658485 | 4.44° C | 60% | 1023.3 hPa | 0 mm | - | 224 W/m² | - |
| 1777657274 | 3.89° C | 68% | 1023.6 hPa | 0 mm | - | 1152 W/m² | - |
| 1777656667 | 3.89° C | 65% | 1023.5 hPa | 0.51 mm | - | 1076 W/m² | - |
| 1777656363 | 3.89° C | 66% | 1023.5 hPa | 0 mm | - | 1006 W/m² | - |
| 1777655755 | 2.78° C | 67% | 1023.6 hPa | 0 mm | - | 138 W/m² | - |
| 1777655149 | 2.22° C | 73% | 1023.6 hPa | 0 mm | - | 32 W/m² | - |
| 1777654846 | 2.78° C | 71% | 1023.3 hPa | 0 mm | - | 36 W/m² | - |
| 1777653938 | 2.78° C | 76% | 1023.2 hPa | 0 mm | - | 36 W/m² | - |
| 1777653028 | 1.67° C | 74% | 1023.3 hPa | 0 mm | - | 38 W/m² | - |
| 1777652724 | 1.67° C | 77% | 1023.3 hPa | 0 mm | - | 28 W/m² | - |
| 1777651512 | 0.56° C | 81% | 1023.1 hPa | 0 mm | - | 18 W/m² | - |
| 1777650906 | 0.56° C | 81% | 1023.2 hPa | 0 mm | - | 18 W/m² | - |
| 1777649997 | 0.56° C | 76% | 1023.1 hPa | 0 mm | - | 29 W/m² | - |
| 1777649695 | 1.11° C | 75% | 1023 hPa | 0 mm | - | 23 W/m² | - |
| 1777649390 | 1.11° C | 75% | 1023.5 hPa | 0 mm | - | 22 W/m² | - |
| 1777649088 | 1.11° C | 79% | 1023.1 hPa | 0 mm | - | 30 W/m² | - |
| 1777648785 | 0° C | 82% | 1023.1 hPa | 0 mm | - | 24 W/m² | - |
* Rain latest hour (hover to see other rain measurements)
** Current wind speed in m/s (hover to see current wind gust speed)